In Rescue
 
Open Full Screen Window  High Contrast Mode
Wind Gusting 15 knots
10
May 25, 2022 9:52 PM CDT
Weather Information
Wind Direction
  020 °
Wind Speed
  10 kt (12 mph)
Wind Gust
  15 kt (17 mph)
Altimeter
29.85 in
Visibility
10 SM
Temperature
10° C
50° F
Dewpoint
08° C
46° F
Humidity
88%
1hr Rain Fall
00.00 in.
24hr Rain Fall
00.07 in.
Sky Condition
Overcast @ 2,000 ft
Broken @ 1,400 ft
MVFR

METAR KULM 260252Z AUTO 02010G15KT 10SM BKN014 OVC020 10/08 A2985 RMK AO2

FAA Disclaimer: The data displayed is for advisory purposes only and is not to be used for flight planning or operations.